Erica Xii — ZCDZ4 — position and weather

sailwx.info

Track history (hours):
 
Tides and Currents Weather Stations Pressure Air Temp Water Temp Dewpoint Dewpoint Depression Visibility Wind Speed Wind Dir Waves Ship Positions

Erica Xii

Last reported at 2015-Apr-15 11:29 UTC. Time now 2015-Apr-21 14:41 UTC.
Position N 13°55' W 061°05'.

Length 53 m; draft 4.8 m.

Type: Sailing vessel. MMSI: 310570000.

Date/timePositionNaut miles runAvg speedWind from/ knotsBaromVisibWave heightAir tempDewpointWater temp
2015-Apr-15 11:29N 13°55' W 061°05'1311.0
2015-Apr-15 10:19N 14°05' W 060°58'0 0.0
2015-Apr-14 19:20N 14°05' W 060°58'0 0.0
2015-Apr-14 17:08N 14°05' W 060°58'0 0.0
2015-Apr-14 15:05N 14°05' W 060°58'4 7.3
2015-Apr-14 14:34N 14°09' W 060°57'1211.9
2015-Apr-14 13:33N 14°21' W 060°56'6 0.1
2015-Apr-12 11:30N 14°27' W 060°54'9 9.5
2015-Apr-12 10:33N 14°18' W 060°58'9 9.3
2015-Apr-12 09:33N 14°09' W 061°01'10 9.2
2015-Apr-12 08:30N 14°00' W 061°04'1010.1
2015-Apr-12 07:29N 13°51' W 061°08'  
Track history (hours):
 
Tides and Currents Weather Stations Pressure Air Temp Water Temp Dewpoint Dewpoint Depression Visibility Wind Speed Wind Dir Waves Ship Positions

Erica Xii

Last reported at 2015-Apr-15 11:29 UTC. Time now 2015-Apr-21 14:41 UTC.
Position N 13°55' W 061°05'.

Length 53 m; draft 4.8 m.

Type: Sailing vessel. MMSI: 310570000.

Date/timePositionNaut miles runAvg speedWind from/ knotsBaromVisibWave heightAir tempDewpointWater temp
2015-Apr-15 11:29N 13°55' W 061°05'1311.0
2015-Apr-15 10:19N 14°05' W 060°58'0 0.0
2015-Apr-14 19:20N 14°05' W 060°58'0 0.0
2015-Apr-14 17:08N 14°05' W 060°58'0 0.0
2015-Apr-14 15:05N 14°05' W 060°58'4 7.3
2015-Apr-14 14:34N 14°09' W 060°57'1211.9
2015-Apr-14 13:33N 14°21' W 060°56'6 0.1
2015-Apr-12 11:30N 14°27' W 060°54'9 9.5
2015-Apr-12 10:33N 14°18' W 060°58'9 9.3
2015-Apr-12 09:33N 14°09' W 061°01'10 9.2
2015-Apr-12 08:30N 14°00' W 061°04'1010.1
2015-Apr-12 07:29N 13°51' W 061°08'  

Dump ship's entire track history